Portada
METAR-TAF:

METAR-TAF

Aeropuertos :

Rolla National Airport

Rolla, Misuri, Estados Unidos

latitud: 38-07-55N, longitud: 091-45-55W, altitud: 350 m

Observación

El informe se hizo hace 55 minutos, a las 18:53 UTC
Viento 9 kt del suroeste con ráfagas de 19 kt
Temperatura 31°C
Humedad 49%
Presión 1023 hPa
Visibilidad: 16.1 km
Nubes dispersas a una altura de 4500 ft

METAR: KVIH 191853Z AUTO 22009G19KT 10SM SCT045 31/19 A3021 RMK AO2 SLP218 T03110194

Hora: 14:48 (19:48 UTC)


TAF: falta

Observaciones y pronósticos meteorológicos de más de 4000 aeropuertos (mensajes METAR y TAF).

Los puntos amarillos y rojos representan las estaciones disponibles.

Ponga el ratón en el punto deseado para ver el nombre de la estación.

Haga clic para ver las observaciones y los pronósticos meteorológicos.

Para cambiar el mapa : haga clic en los botones verdes con una cruz de color negro para hacer un zoom, en el botón verde con un guión para alejar o en las flechas verdes para mapas adyacentes.


METAR-TAF: